sensor_id;sensor_type;location;lat;lon;timestamp;pressure;altitude;pressure_sealevel;temperature;humidity
77631;BME280;66798;47.370;8.552;2024-01-15T06:11:54;95708.03;;;0.74;76.25
77631;BME280;66798;47.370;8.552;2024-01-15T06:14:19;95700.16;;;0.92;77.10
77631;BME280;66798;47.370;8.552;2024-01-15T06:16:45;95708.03;;;0.97;76.23
77631;BME280;66798;47.370;8.552;2024-01-15T06:19:10;95700.03;;;0.99;75.85
77631;BME280;66798;47.370;8.552;2024-01-15T06:21:36;95695.22;;;0.91;76.19
77631;BME280;66798;47.370;8.552;2024-01-15T06:24:01;95692.72;;;0.96;76.65
77631;BME280;66798;47.370;8.552;2024-01-15T06:26:27;95695.19;;;1.02;76.36
77631;BME280;66798;47.370;8.552;2024-01-15T06:28:52;95701.00;;;1.10;76.10
77631;BME280;66798;47.370;8.552;2024-01-15T06:31:18;95693.72;;;1.06;76.20
77631;BME280;66798;47.370;8.552;2024-01-15T06:33:43;95697.75;;;1.14;75.72
77631;BME280;66798;47.370;8.552;2024-01-15T06:36:12;95689.97;;;1.14;75.74
77631;BME280;66798;47.370;8.552;2024-01-15T06:38:38;95688.84;;;1.22;75.79
77631;BME280;66798;47.370;8.552;2024-01-15T06:41:03;95688.38;;;1.25;76.58
77631;BME280;66798;47.370;8.552;2024-01-15T06:43:29;95690.63;;;1.21;75.53
77631;BME280;66798;47.370;8.552;2024-01-15T06:45:54;95687.22;;;1.33;75.68
77631;BME280;66798;47.370;8.552;2024-01-15T06:48:20;95682.19;;;1.14;75.38
77631;BME280;66798;47.370;8.552;2024-01-15T06:50:45;95683.09;;;1.20;76.49
77631;BME280;66798;47.370;8.552;2024-01-15T06:53:11;95692.09;;;1.29;76.88
77631;BME280;66798;47.370;8.552;2024-01-15T06:55:38;95684.41;;;1.34;76.30
77631;BME280;66798;47.370;8.552;2024-01-15T06:58:04;95695.56;;;1.35;76.63
77631;BME280;66798;47.370;8.552;2024-01-15T07:00:29;95689.94;;;1.26;76.51
77631;BME280;66798;47.370;8.552;2024-01-15T07:02:55;95692.19;;;1.34;76.05
77631;BME280;66798;47.370;8.552;2024-01-15T07:05:21;95685.00;;;1.24;75.53
77631;BME280;66798;47.370;8.552;2024-01-15T07:07:46;95698.63;;;1.32;75.87
77631;BME280;66798;47.370;8.552;2024-01-15T07:10:13;95691.44;;;1.22;76.51
77631;BME280;66798;47.370;8.552;2024-01-15T07:12:41;95682.31;;;1.19;76.37
77631;BME280;66798;47.370;8.552;2024-01-15T07:15:07;95686.44;;;1.32;76.26
77631;BME280;66798;47.370;8.552;2024-01-15T07:17:34;95685.41;;;1.33;76.72
77631;BME280;66798;47.370;8.552;2024-01-15T07:19:59;95680.41;;;1.26;75.48
77631;BME280;66798;47.370;8.552;2024-01-15T07:22:25;95683.06;;;1.32;75.35
77631;BME280;66798;47.370;8.552;2024-01-15T07:24:50;95687.56;;;1.36;75.90
77631;BME280;66798;47.370;8.552;2024-01-15T07:27:16;95699.88;;;1.29;75.65
77631;BME280;66798;47.370;8.552;2024-01-15T07:29:41;95698.25;;;1.40;76.04
77631;BME280;66798;47.370;8.552;2024-01-15T07:32:08;95699.50;;;1.37;76.07
77631;BME280;66798;47.370;8.552;2024-01-15T07:34:34;95703.25;;;1.18;76.50
77631;BME280;66798;47.370;8.552;2024-01-15T07:37:00;95695.38;;;1.24;75.41
77631;BME280;66798;47.370;8.552;2024-01-15T07:39:25;95703.59;;;1.21;75.69
77631;BME280;66798;47.370;8.552;2024-01-15T07:41:52;95699.34;;;1.15;75.28
77631;BME280;66798;47.370;8.552;2024-01-15T07:44:17;95700.13;;;1.16;75.86
77631;BME280;66798;47.370;8.552;2024-01-15T07:46:46;95701.28;;;0.96;74.58
77631;BME280;66798;47.370;8.552;2024-01-15T07:49:12;95713.66;;;0.94;74.98
77631;BME280;66798;47.370;8.552;2024-01-15T07:51:38;95705.53;;;1.02;74.75
77631;BME280;66798;47.370;8.552;2024-01-15T07:54:06;95705.31;;;1.04;74.73
77631;BME280;66798;47.370;8.552;2024-01-15T07:56:32;95710.84;;;1.08;74.89
77631;BME280;66798;47.370;8.552;2024-01-15T07:58:58;95713.31;;;1.02;74.66
77631;BME280;66798;47.370;8.552;2024-01-15T08:01:23;95707.03;;;0.98;74.46
77631;BME280;66798;47.370;8.552;2024-01-15T08:03:49;95718.38;;;0.97;74.15
77631;BME280;66798;47.370;8.552;2024-01-15T08:06:15;95716.44;;;1.04;74.89
77631;BME280;66798;47.370;8.552;2024-01-15T08:08:40;95712.88;;;1.05;75.40
77631;BME280;66798;47.370;8.552;2024-01-15T08:11:06;95720.84;;;1.16;74.93
77631;BME280;66798;47.370;8.552;2024-01-15T08:13:32;95717.78;;;1.19;74.32
77631;BME280;66798;47.370;8.552;2024-01-15T08:15:57;95717.22;;;1.17;74.84
77631;BME280;66798;47.370;8.552;2024-01-15T08:18:23;95719.28;;;1.03;74.39
77631;BME280;66798;47.370;8.552;2024-01-15T08:20:49;95725.53;;;1.19;74.71
77631;BME280;66798;47.370;8.552;2024-01-15T08:23:16;95715.53;;;1.22;74.28
77631;BME280;66798;47.370;8.552;2024-01-15T08:25:41;95717.34;;;1.22;74.20
77631;BME280;66798;47.370;8.552;2024-01-15T08:28:07;95718.69;;;1.24;73.09
77631;BME280;66798;47.370;8.552;2024-01-15T08:30:33;95711.59;;;1.20;73.50
77631;BME280;66798;47.370;8.552;2024-01-15T08:33:00;95719.38;;;1.20;74.24
77631;BME280;66798;47.370;8.552;2024-01-15T08:35:26;95724.44;;;1.15;73.95
77631;BME280;66798;47.370;8.552;2024-01-15T08:37:52;95713.69;;;1.35;74.61
77631;BME280;66798;47.370;8.552;2024-01-15T08:40:18;95710.34;;;1.22;74.02
77631;BME280;66798;47.370;8.552;2024-01-15T08:42:44;95714.72;;;1.34;74.64
77631;BME280;66798;47.370;8.552;2024-01-15T08:45:13;95719.34;;;1.32;73.48
77631;BME280;66798;47.370;8.552;2024-01-15T08:47:39;95726.53;;;1.41;73.31
77631;BME280;66798;47.370;8.552;2024-01-15T08:50:05;95726.84;;;1.45;73.13
77631;BME280;66798;47.370;8.552;2024-01-15T08:52:30;95727.19;;;1.48;74.02
77631;BME280;66798;47.370;8.552;2024-01-15T08:54:57;95728.50;;;1.51;73.19
77631;BME280;66798;47.370;8.552;2024-01-15T08:57:22;95729.13;;;1.41;73.75
77631;BME280;66798;47.370;8.552;2024-01-15T08:59:48;95729.25;;;1.35;73.96
77631;BME280;66798;47.370;8.552;2024-01-15T09:02:14;95726.84;;;1.45;72.69
77631;BME280;66798;47.370;8.552;2024-01-15T09:04:41;95734.19;;;1.36;72.97
77631;BME280;66798;47.370;8.552;2024-01-15T09:07:07;95728.09;;;1.42;72.66
77631;BME280;66798;47.370;8.552;2024-01-15T09:09:32;95723.94;;;1.41;72.86
77631;BME280;66798;47.370;8.552;2024-01-15T09:11:59;95721.66;;;1.45;72.38
77631;BME280;66798;47.370;8.552;2024-01-15T09:14:25;95717.72;;;1.42;72.22
77631;BME280;66798;47.370;8.552;2024-01-15T09:16:52;95730.13;;;1.40;71.53
77631;BME280;66798;47.370;8.552;2024-01-15T09:19:18;95724.84;;;1.35;70.78
77631;BME280;66798;47.370;8.552;2024-01-15T09:21:44;95727.44;;;1.35;72.35
77631;BME280;66798;47.370;8.552;2024-01-15T09:24:09;95727.53;;;1.40;71.51
77631;BME280;66798;47.370;8.552;2024-01-15T09:26:34;95728.44;;;1.46;71.33
77631;BME280;66798;47.370;8.552;2024-01-15T09:29:00;95727.00;;;1.38;71.12
77631;BME280;66798;47.370;8.552;2024-01-15T09:31:26;95722.47;;;1.45;71.79
77631;BME280;66798;47.370;8.552;2024-01-15T09:33:52;95722.72;;;1.61;71.42
77631;BME280;66798;47.370;8.552;2024-01-15T09:36:22;95723.59;;;1.66;70.92
77631;BME280;66798;47.370;8.552;2024-01-15T09:38:48;95720.16;;;1.61;70.23
77631;BME280;66798;47.370;8.552;2024-01-15T09:41:14;95717.84;;;1.36;68.98
77631;BME280;66798;47.370;8.552;2024-01-15T09:43:40;95713.53;;;1.53;69.91
77631;BME280;66798;47.370;8.552;2024-01-15T09:46:05;95717.34;;;1.62;70.39
77631;BME280;66798;47.370;8.552;2024-01-15T09:48:31;95713.03;;;1.68;68.44
77631;BME280;66798;47.370;8.552;2024-01-15T09:51:01;95715.13;;;1.71;69.35
77631;BME280;66798;47.370;8.552;2024-01-15T09:53:27;95721.44;;;1.75;71.67
77631;BME280;66798;47.370;8.552;2024-01-15T09:55:53;95709.25;;;1.76;71.17
77631;BME280;66798;47.370;8.552;2024-01-15T09:58:19;95712.63;;;1.76;70.53
77631;BME280;66798;47.370;8.552;2024-01-15T10:00:44;95713.53;;;1.82;70.25
77631;BME280;66798;47.370;8.552;2024-01-15T10:03:12;95712.28;;;1.84;70.68
77631;BME280;66798;47.370;8.552;2024-01-15T10:05:38;95715.22;;;1.76;69.69
77631;BME280;66798;47.370;8.552;2024-01-15T10:08:05;95708.66;;;1.85;70.96
77631;BME280;66798;47.370;8.552;2024-01-15T10:10:31;95703.25;;;1.87;70.61
77631;BME280;66798;47.370;8.552;2024-01-15T10:12:58;95706.38;;;1.89;71.11
77631;BME280;66798;47.370;8.552;2024-01-15T10:15:25;95709.53;;;1.91;70.57
77631;BME280;66798;47.370;8.552;2024-01-15T10:17:52;95704.66;;;1.95;70.84
77631;BME280;66798;47.370;8.552;2024-01-15T10:20:17;95691.69;;;1.95;70.20
77631;BME280;66798;47.370;8.552;2024-01-15T10:22:44;95688.88;;;1.96;70.76
77631;BME280;66798;47.370;8.552;2024-01-15T10:25:13;95692.81;;;1.99;69.44
77631;BME280;66798;47.370;8.552;2024-01-15T10:27:40;95683.22;;;1.99;70.05
77631;BME280;66798;47.370;8.552;2024-01-15T10:30:07;95679.75;;;1.94;69.88
77631;BME280;66798;47.370;8.552;2024-01-15T10:32:33;95676.47;;;1.98;70.86
77631;BME280;66798;47.370;8.552;2024-01-15T10:34:59;95674.97;;;2.02;70.36
77631;BME280;66798;47.370;8.552;2024-01-15T10:37:24;95671.34;;;2.03;70.87
77631;BME280;66798;47.370;8.552;2024-01-15T10:39:50;95667.28;;;2.07;70.69
77631;BME280;66798;47.370;8.552;2024-01-15T10:42:16;95656.66;;;2.09;70.22
77631;BME280;66798;47.370;8.552;2024-01-15T10:44:44;95652.56;;;2.13;70.13
77631;BME280;66798;47.370;8.552;2024-01-15T10:47:12;95654.06;;;2.09;69.07
77631;BME280;66798;47.370;8.552;2024-01-15T10:49:38;95646.59;;;2.12;69.58
77631;BME280;66798;47.370;8.552;2024-01-15T10:52:04;95643.31;;;2.17;69.08
77631;BME280;66798;47.370;8.552;2024-01-15T10:54:30;95650.69;;;2.08;68.78
77631;BME280;66798;47.370;8.552;2024-01-15T10:56:58;95650.59;;;2.20;69.17
77631;BME280;66798;47.370;8.552;2024-01-15T10:59:24;95649.44;;;2.11;69.03
77631;BME280;66798;47.370;8.552;2024-01-15T11:01:51;95643.22;;;2.12;69.30
77631;BME280;66798;47.370;8.552;2024-01-15T11:04:20;95638.81;;;2.12;70.17
77631;BME280;66798;47.370;8.552;2024-01-15T11:06:53;95630.41;;;2.05;69.33
77631;BME280;66798;47.370;8.552;2024-01-15T11:09:21;95635.34;;;2.07;70.07
77631;BME280;66798;47.370;8.552;2024-01-15T11:11:47;95631.03;;;2.12;69.12
77631;BME280;66798;47.370;8.552;2024-01-15T11:14:39;95636.47;;;2.11;69.31
77631;BME280;66798;47.370;8.552;2024-01-15T11:17:06;95636.63;;;2.04;69.57
77631;BME280;66798;47.370;8.552;2024-01-15T11:22:08;95634.50;;;2.01;68.72
77631;BME280;66798;47.370;8.552;2024-01-15T11:24:39;95641.03;;;2.04;69.10
77631;BME280;66798;47.370;8.552;2024-01-15T11:27:07;95640.72;;;2.17;69.14
77631;BME280;66798;47.370;8.552;2024-01-15T11:29:37;95631.13;;;2.18;66.69
77631;BME280;66798;47.370;8.552;2024-01-15T11:32:05;95619.56;;;2.25;67.56
77631;BME280;66798;47.370;8.552;2024-01-15T11:34:56;95608.88;;;2.22;66.44
77631;BME280;66798;47.370;8.552;2024-01-15T11:37:25;95611.22;;;2.23;67.90
77631;BME280;66798;47.370;8.552;2024-01-15T11:39:52;95608.69;;;2.28;68.62
77631;BME280;66798;47.370;8.552;2024-01-15T11:42:20;95615.75;;;2.33;66.67
77631;BME280;66798;47.370;8.552;2024-01-15T11:44:46;95615.59;;;2.40;67.81
77631;BME280;66798;47.370;8.552;2024-01-15T11:47:12;95613.00;;;2.40;67.80
77631;BME280;66798;47.370;8.552;2024-01-15T11:52:20;95601.97;;;2.49;67.51
77631;BME280;66798;47.370;8.552;2024-01-15T11:55:18;95606.69;;;2.52;67.68
77631;BME280;66798;47.370;8.552;2024-01-15T11:57:53;95604.56;;;2.49;68.14
77631;BME280;66798;47.370;8.552;2024-01-15T12:00:22;95598.03;;;2.47;67.26
77631;BME280;66798;47.370;8.552;2024-01-15T12:02:50;95587.72;;;2.52;68.18
77631;BME280;66798;47.370;8.552;2024-01-15T12:05:19;95582.84;;;2.55;68.34
77631;BME280;66798;47.370;8.552;2024-01-15T12:07:49;95575.84;;;2.56;66.67
77631;BME280;66798;47.370;8.552;2024-01-15T12:10:17;95584.47;;;2.62;66.75
77631;BME280;66798;47.370;8.552;2024-01-15T12:13:07;95581.09;;;2.61;65.98
77631;BME280;66798;47.370;8.552;2024-01-15T12:15:34;95578.81;;;2.65;66.28
77631;BME280;66798;47.370;8.552;2024-01-15T12:18:01;95584.84;;;2.70;66.52
77631;BME280;66798;47.370;8.552;2024-01-15T12:20:31;95580.16;;;2.67;67.35
77631;BME280;66798;47.370;8.552;2024-01-15T12:22:58;95579.59;;;2.65;65.89
77631;BME280;66798;47.370;8.552;2024-01-15T12:25:24;95581.66;;;2.63;65.81
77631;BME280;66798;47.370;8.552;2024-01-15T12:27:51;95590.81;;;2.71;66.15
77631;BME280;66798;47.370;8.552;2024-01-15T12:30:16;95588.53;;;2.74;66.53
77631;BME280;66798;47.370;8.552;2024-01-15T12:32:43;95587.81;;;2.79;66.97
77631;BME280;66798;47.370;8.552;2024-01-15T12:35:10;95582.38;;;2.81;66.82
77631;BME280;66798;47.370;8.552;2024-01-15T12:37:39;95586.50;;;2.76;65.48
77631;BME280;66798;47.370;8.552;2024-01-15T12:40:08;95585.94;;;2.74;66.76
77631;BME280;66798;47.370;8.552;2024-01-15T12:42:39;95591.69;;;2.76;67.74
77631;BME280;66798;47.370;8.552;2024-01-15T12:45:05;95596.31;;;2.74;67.81
77631;BME280;66798;47.370;8.552;2024-01-15T12:47:32;95584.13;;;2.75;67.66
77631;BME280;66798;47.370;8.552;2024-01-15T12:49:58;95584.91;;;2.75;66.62
77631;BME280;66798;47.370;8.552;2024-01-15T12:52:27;95574.69;;;2.69;68.44
77631;BME280;66798;47.370;8.552;2024-01-15T12:54:53;95575.34;;;2.81;68.36
77631;BME280;66798;47.370;8.552;2024-01-15T12:57:18;95572.69;;;2.76;67.94
77631;BME280;66798;47.370;8.552;2024-01-15T12:59:45;95576.63;;;2.79;67.88
77631;BME280;66798;47.370;8.552;2024-01-15T13:02:11;95580.75;;;2.74;68.14
77631;BME280;66798;47.370;8.552;2024-01-15T13:04:37;95576.34;;;2.75;68.64
77631;BME280;66798;47.370;8.552;2024-01-15T13:07:04;95579.22;;;2.79;68.29
77631;BME280;66798;47.370;8.552;2024-01-15T13:09:29;95575.13;;;2.83;68.06
77631;BME280;66798;47.370;8.552;2024-01-15T13:11:55;95573.63;;;2.87;67.12
77631;BME280;66798;47.370;8.552;2024-01-15T13:14:20;95575.34;;;2.81;66.49
77631;BME280;66798;47.370;8.552;2024-01-15T13:16:46;95583.50;;;2.90;68.39
77631;BME280;66798;47.370;8.552;2024-01-15T13:19:12;95573.31;;;2.83;67.66
77631;BME280;66798;47.370;8.552;2024-01-15T13:21:42;95587.09;;;2.84;68.33
77631;BME280;66798;47.370;8.552;2024-01-15T13:24:08;95589.47;;;2.90;67.65
77631;BME280;66798;47.370;8.552;2024-01-15T13:26:35;95599.69;;;2.97;68.35
77631;BME280;66798;47.370;8.552;2024-01-15T13:29:04;95596.13;;;3.03;67.56
77631;BME280;66798;47.370;8.552;2024-01-15T13:31:30;95597.47;;;3.06;68.43
77631;BME280;66798;47.370;8.552;2024-01-15T13:33:55;95587.31;;;3.04;68.43
77631;BME280;66798;47.370;8.552;2024-01-15T13:36:27;95589.75;;;2.89;67.32
77631;BME280;66798;47.370;8.552;2024-01-15T13:38:53;95603.28;;;2.91;68.45
77631;BME280;66798;47.370;8.552;2024-01-15T13:41:19;95604.59;;;2.93;68.64
77631;BME280;66798;47.370;8.552;2024-01-15T13:43:49;95616.31;;;2.96;68.68
77631;BME280;66798;47.370;8.552;2024-01-15T13:46:15;95611.91;;;2.74;68.73
77631;BME280;66798;47.370;8.552;2024-01-15T13:48:40;95617.88;;;2.75;70.16
77631;BME280;66798;47.370;8.552;2024-01-15T13:51:06;95623.31;;;2.73;69.66
77631;BME280;66798;47.370;8.552;2024-01-15T13:53:31;95612.84;;;2.68;69.38
77631;BME280;66798;47.370;8.552;2024-01-15T13:55:57;95621.88;;;2.83;70.45
77631;BME280;66798;47.370;8.552;2024-01-15T13:58:22;95624.50;;;2.88;69.80
77631;BME280;66798;47.370;8.552;2024-01-15T14:00:48;95625.97;;;2.79;69.79
77631;BME280;66798;47.370;8.552;2024-01-15T14:03:14;95625.91;;;2.73;70.49
77631;BME280;66798;47.370;8.552;2024-01-15T14:05:40;95635.72;;;2.71;70.37
77631;BME280;66798;47.370;8.552;2024-01-15T14:08:06;95650.41;;;2.61;71.04
77631;BME280;66798;47.370;8.552;2024-01-15T14:10:31;95651.03;;;2.68;70.69
77631;BME280;66798;47.370;8.552;2024-01-15T14:12:57;95654.94;;;2.70;69.65
77631;BME280;66798;47.370;8.552;2024-01-15T14:15:22;95634.19;;;2.70;69.83
77631;BME280;66798;47.370;8.552;2024-01-15T14:17:48;95636.06;;;2.75;70.06
77631;BME280;66798;47.370;8.552;2024-01-15T14:20:13;95643.47;;;2.66;70.39
77631;BME280;66798;47.370;8.552;2024-01-15T14:22:39;95642.19;;;2.69;70.29
77631;BME280;66798;47.370;8.552;2024-01-15T14:25:04;95641.28;;;2.58;69.69
77631;BME280;66798;47.370;8.552;2024-01-15T14:27:30;95638.59;;;2.70;70.26
77631;BME280;66798;47.370;8.552;2024-01-15T14:29:56;95642.50;;;2.72;70.74
77631;BME280;66798;47.370;8.552;2024-01-15T14:32:21;95647.78;;;2.78;70.36
77631;BME280;66798;47.370;8.552;2024-01-15T14:34:47;95654.78;;;2.77;70.65
77631;BME280;66798;47.370;8.552;2024-01-15T14:37:13;95656.09;;;2.80;69.83
77631;BME280;66798;47.370;8.552;2024-01-15T14:39:38;95662.84;;;2.81;70.75
77631;BME280;66798;47.370;8.552;2024-01-15T14:42:04;95667.28;;;2.80;70.23
77631;BME280;66798;47.370;8.552;2024-01-15T14:44:30;95668.84;;;2.81;70.88
77631;BME280;66798;47.370;8.552;2024-01-15T14:46:55;95678.88;;;2.72;70.79
77631;BME280;66798;47.370;8.552;2024-01-15T14:49:23;95686.94;;;2.76;71.04
77631;BME280;66798;47.370;8.552;2024-01-15T14:51:50;95689.91;;;2.63;71.14
77631;BME280;66798;47.370;8.552;2024-01-15T14:54:16;95694.53;;;2.61;69.79
77631;BME280;66798;47.370;8.552;2024-01-15T14:56:41;95711.13;;;2.76;69.73
77631;BME280;66798;47.370;8.552;2024-01-15T14:59:08;95714.72;;;2.75;70.51
77631;BME280;66798;47.370;8.552;2024-01-15T15:01:34;95727.63;;;2.70;70.76
77631;BME280;66798;47.370;8.552;2024-01-15T15:04:00;95726.63;;;2.54;72.10
77631;BME280;66798;47.370;8.552;2024-01-15T15:06:25;95739.03;;;2.52;72.09
77631;BME280;66798;47.370;8.552;2024-01-15T15:08:53;95734.41;;;2.38;72.58
77631;BME280;66798;47.370;8.552;2024-01-15T15:11:20;95734.19;;;2.39;73.23
77631;BME280;66798;47.370;8.552;2024-01-15T15:13:49;95732.44;;;2.11;73.66
77631;BME280;66798;47.370;8.552;2024-01-15T15:16:15;95736.97;;;2.04;73.52
77631;BME280;66798;47.370;8.552;2024-01-15T15:18:41;95735.16;;;2.04;73.40
77631;BME280;66798;47.370;8.552;2024-01-15T15:21:11;95744.72;;;1.87;74.04
77631;BME280;66798;47.370;8.552;2024-01-15T15:23:37;95751.56;;;1.93;74.13
77631;BME280;66798;47.370;8.552;2024-01-15T15:26:04;95756.53;;;1.95;74.61
77631;BME280;66798;47.370;8.552;2024-01-15T15:28:30;95758.28;;;1.77;75.20
77631;BME280;66798;47.370;8.552;2024-01-15T15:30:55;95753.19;;;1.54;74.62
77631;BME280;66798;47.370;8.552;2024-01-15T15:33:22;95757.31;;;1.66;74.94
77631;BME280;66798;47.370;8.552;2024-01-15T15:35:48;95764.63;;;1.69;74.98
77631;BME280;66798;47.370;8.552;2024-01-15T15:38:16;95779.28;;;1.64;74.70
77631;BME280;66798;47.370;8.552;2024-01-15T15:40:42;95777.63;;;1.58;74.76
77631;BME280;66798;47.370;8.552;2024-01-15T15:43:08;95774.47;;;1.56;74.88
77631;BME280;66798;47.370;8.552;2024-01-15T15:45:33;95791.16;;;1.60;75.25
77631;BME280;66798;47.370;8.552;2024-01-15T15:47:59;95790.31;;;1.71;74.34
77631;BME280;66798;47.370;8.552;2024-01-15T15:50:24;95780.97;;;1.70;73.69
77631;BME280;66798;47.370;8.552;2024-01-15T15:52:50;95789.78;;;1.57;74.45
77631;BME280;66798;47.370;8.552;2024-01-15T15:55:15;95792.16;;;1.47;73.91
77631;BME280;66798;47.370;8.552;2024-01-15T15:57:41;95793.63;;;1.55;73.42
77631;BME280;66798;47.370;8.552;2024-01-15T16:00:07;95784.41;;;1.47;73.63
77631;BME280;66798;47.370;8.552;2024-01-15T16:02:32;95800.88;;;1.41;73.39
77631;BME280;66798;47.370;8.552;2024-01-15T16:04:58;95800.88;;;1.29;73.44
77631;BME280;66798;47.370;8.552;2024-01-15T16:07:23;95802.00;;;1.33;72.58
77631;BME280;66798;47.370;8.552;2024-01-15T16:09:54;95805.59;;;1.44;72.87
77631;BME280;66798;47.370;8.552;2024-01-15T16:12:20;95808.97;;;1.44;73.26
77631;BME280;66798;47.370;8.552;2024-01-15T16:14:45;95807.16;;;1.33;73.13
77631;BME280;66798;47.370;8.552;2024-01-15T16:17:11;95820.13;;;1.33;73.67
77631;BME280;66798;47.370;8.552;2024-01-15T16:19:36;95812.59;;;1.43;72.82
77631;BME280;66798;47.370;8.552;2024-01-15T16:22:02;95810.88;;;1.37;73.14
77631;BME280;66798;47.370;8.552;2024-01-15T16:24:29;95816.63;;;1.39;73.69
77631;BME280;66798;47.370;8.552;2024-01-15T16:26:55;95823.97;;;1.31;72.92
77631;BME280;66798;47.370;8.552;2024-01-15T16:29:20;95838.59;;;1.37;73.41
77631;BME280;66798;47.370;8.552;2024-01-15T16:31:46;95828.81;;;1.27;73.08
77631;BME280;66798;47.370;8.552;2024-01-15T16:34:11;95831.31;;;1.22;72.61
77631;BME280;66798;47.370;8.552;2024-01-15T16:36:37;95827.13;;;1.33;72.64
77631;BME280;66798;47.370;8.552;2024-01-15T16:39:02;95833.63;;;1.35;73.04
77631;BME280;66798;47.370;8.552;2024-01-15T16:41:28;95823.19;;;1.30;73.26
77631;BME280;66798;47.370;8.552;2024-01-15T16:43:54;95831.28;;;1.34;73.01
77631;BME280;66798;47.370;8.552;2024-01-15T16:46:19;95840.31;;;1.31;73.05
77631;BME280;66798;47.370;8.552;2024-01-15T16:48:45;95845.50;;;1.31;72.98
77631;BME280;66798;47.370;8.552;2024-01-15T16:51:11;95845.59;;;1.36;72.82
77631;BME280;66798;47.370;8.552;2024-01-15T16:53:37;95842.19;;;1.47;72.43
77631;BME280;66798;47.370;8.552;2024-01-15T16:56:02;95848.94;;;1.60;72.98
77631;BME280;66798;47.370;8.552;2024-01-15T16:58:29;95845.91;;;1.52;72.22
77631;BME280;66798;47.370;8.552;2024-01-15T17:00:55;95860.09;;;1.49;72.50
77631;BME280;66798;47.370;8.552;2024-01-15T17:03:21;95864.94;;;1.57;72.77
77631;BME280;66798;47.370;8.552;2024-01-15T17:05:46;95870.69;;;1.47;72.67
77631;BME280;66798;47.370;8.552;2024-01-15T17:08:12;95857.19;;;1.45;72.90
77631;BME280;66798;47.370;8.552;2024-01-15T17:10:37;95858.75;;;1.46;72.95
77631;BME280;66798;47.370;8.552;2024-01-15T17:13:04;95862.59;;;1.56;72.43
77631;BME280;66798;47.370;8.552;2024-01-15T17:15:30;95859.75;;;1.57;71.83
77631;BME280;66798;47.370;8.552;2024-01-15T17:17:57;95864.16;;;1.57;72.86
77631;BME280;66798;47.370;8.552;2024-01-15T17:20:22;95860.66;;;1.51;72.08
77631;BME280;66798;47.370;8.552;2024-01-15T17:22:48;95865.41;;;1.54;71.14
77631;BME280;66798;47.370;8.552;2024-01-15T17:25:13;95874.19;;;1.41;71.99
77631;BME280;66798;47.370;8.552;2024-01-15T17:27:39;95876.22;;;1.51;71.00
77631;BME280;66798;47.370;8.552;2024-01-15T17:30:08;95868.34;;;1.46;71.66
77631;BME280;66798;47.370;8.552;2024-01-15T17:32:34;95873.50;;;1.58;71.51
77631;BME280;66798;47.370;8.552;2024-01-15T17:35:00;95874.28;;;1.70;71.59
77631;BME280;66798;47.370;8.552;2024-01-15T17:37:26;95883.06;;;1.69;71.02
77631;BME280;66798;47.370;8.552;2024-01-15T17:39:52;95876.09;;;1.69;70.77
77631;BME280;66798;47.370;8.552;2024-01-15T17:42:18;95875.19;;;1.64;71.46
77631;BME280;66798;47.370;8.552;2024-01-15T17:44:44;95876.34;;;1.44;71.69
77631;BME280;66798;47.370;8.552;2024-01-15T17:47:09;95869.34;;;1.45;70.33
77631;BME280;66798;47.370;8.552;2024-01-15T17:49:35;95887.16;;;1.41;70.82
77631;BME280;66798;47.370;8.552;2024-01-15T17:52:01;95898.31;;;1.42;71.44
77631;BME280;66798;47.370;8.552;2024-01-15T17:54:27;95908.56;;;1.48;71.31
77631;BME280;66798;47.370;8.552;2024-01-15T17:56:54;95902.91;;;1.52;71.39
77631;BME280;66798;47.370;8.552;2024-01-15T17:59:20;95917.09;;;1.61;70.31
77631;BME280;66798;47.370;8.552;2024-01-15T18:01:45;95920.28;;;1.63;70.77
77631;BME280;66798;47.370;8.552;2024-01-15T18:04:12;95924.88;;;1.49;70.48
77631;BME280;66798;47.370;8.552;2024-01-15T18:06:38;95919.03;;;1.54;70.15
77631;BME280;66798;47.370;8.552;2024-01-15T18:09:03;95919.69;;;1.61;71.25
77631;BME280;66798;47.370;8.552;2024-01-15T18:11:29;95926.13;;;1.46;70.35
77631;BME280;66798;47.370;8.552;2024-01-15T18:13:55;95938.72;;;1.43;71.41
77631;BME280;66798;47.370;8.552;2024-01-15T18:16:21;95937.72;;;1.44;70.87
77631;BME280;66798;47.370;8.552;2024-01-15T18:18:50;95942.47;;;1.47;71.44
77631;BME280;66798;47.370;8.552;2024-01-15T18:21:22;95950.78;;;1.37;72.72
77631;BME280;66798;47.370;8.552;2024-01-15T18:23:48;95961.72;;;1.39;71.22
77631;BME280;66798;47.370;8.552;2024-01-15T18:26:15;95977.28;;;1.39;72.11
77631;BME280;66798;47.370;8.552;2024-01-15T18:28:42;95970.53;;;1.38;72.61
77631;BME280;66798;47.370;8.552;2024-01-15T18:31:07;95975.69;;;1.38;72.33
77631;BME280;66798;47.370;8.552;2024-01-15T18:33:36;95974.88;;;1.38;73.39
77631;BME280;66798;47.370;8.552;2024-01-15T18:36:03;95967.06;;;1.14;72.81
77631;BME280;66798;47.370;8.552;2024-01-15T18:38:28;95973.97;;;1.20;73.44
77631;BME280;66798;47.370;8.552;2024-01-15T18:40:56;95968.88;;;1.14;73.23
77631;BME280;66798;47.370;8.552;2024-01-15T18:43:22;95986.34;;;1.18;73.57
77631;BME280;66798;47.370;8.552;2024-01-15T18:45:47;95990.97;;;1.16;74.53
77631;BME280;66798;47.370;8.552;2024-01-15T18:48:13;95988.03;;;1.13;74.10
77631;BME280;66798;47.370;8.552;2024-01-15T18:50:38;95982.69;;;0.96;74.00
77631;BME280;66798;47.370;8.552;2024-01-15T18:53:04;95983.16;;;1.04;73.82
77631;BME280;66798;47.370;8.552;2024-01-15T18:55:30;95992.16;;;1.02;73.88
77631;BME280;66798;47.370;8.552;2024-01-15T18:57:55;96000.72;;;1.02;74.74
77631;BME280;66798;47.370;8.552;2024-01-15T19:00:21;95998.94;;;1.03;73.65
77631;BME280;66798;47.370;8.552;2024-01-15T19:02:49;96006.28;;;1.18;73.81
77631;BME280;66798;47.370;8.552;2024-01-15T19:05:15;96007.03;;;1.06;73.36
77631;BME280;66798;47.370;8.552;2024-01-15T19:07:40;96018.03;;;1.02;73.44
77631;BME280;66798;47.370;8.552;2024-01-15T19:10:08;96021.47;;;1.14;72.72
77631;BME280;66798;47.370;8.552;2024-01-15T19:12:34;96017.53;;;1.23;73.02
77631;BME280;66798;47.370;8.552;2024-01-15T19:14:59;96025.91;;;1.25;73.19
77631;BME280;66798;47.370;8.552;2024-01-15T19:17:24;96031.72;;;1.21;73.28
77631;BME280;66798;47.370;8.552;2024-01-15T19:19:50;96024.88;;;1.15;72.76
77631;BME280;66798;47.370;8.552;2024-01-15T19:22:17;96032.75;;;0.90;73.36